sensor_id;sensor_type;location;lat;lon;timestamp;temperature;humidity
10312;DHT22;5201;48.776;9.128;2023-09-30T00:00:26;18.80;99.90
10312;DHT22;5201;48.776;9.128;2023-09-30T00:02:52;19.10;99.90
10312;DHT22;5201;48.776;9.128;2023-09-30T00:05:18;18.80;99.90
10312;DHT22;5201;48.776;9.128;2023-09-30T00:07:46;18.90;99.90
10312;DHT22;5201;48.776;9.128;2023-09-30T00:10:11;18.90;99.90
10312;DHT22;5201;48.776;9.128;2023-09-30T00:12:37;18.90;99.90
10312;DHT22;5201;48.776;9.128;2023-09-30T00:15:03;19.40;99.90
10312;DHT22;5201;48.776;9.128;2023-09-30T00:17:29;19.00;99.90
10312;DHT22;5201;48.776;9.128;2023-09-30T00:19:55;19.10;99.90
10312;DHT22;5201;48.776;9.128;2023-09-30T00:22:21;19.00;99.90
10312;DHT22;5201;48.776;9.128;2023-09-30T00:24:46;18.90;99.90
10312;DHT22;5201;48.776;9.128;2023-09-30T00:27:12;18.90;99.90
10312;DHT22;5201;48.776;9.128;2023-09-30T00:29:38;18.90;99.90
10312;DHT22;5201;48.776;9.128;2023-09-30T00:32:03;18.90;99.90
10312;DHT22;5201;48.776;9.128;2023-09-30T00:34:32;18.80;99.90
10312;DHT22;5201;48.776;9.128;2023-09-30T00:36:58;18.80;99.90
10312;DHT22;5201;48.776;9.128;2023-09-30T00:39:24;18.80;99.90
10312;DHT22;5201;48.776;9.128;2023-09-30T00:41:52;18.80;99.90
10312;DHT22;5201;48.776;9.128;2023-09-30T00:44:19;18.80;99.90
10312;DHT22;5201;48.776;9.128;2023-09-30T00:46:45;18.70;99.90
10312;DHT22;5201;48.776;9.128;2023-09-30T00:49:14;18.70;99.90
10312;DHT22;5201;48.776;9.128;2023-09-30T00:51:40;18.70;99.90
10312;DHT22;5201;48.776;9.128;2023-09-30T00:54:06;18.70;99.90
10312;DHT22;5201;48.776;9.128;2023-09-30T00:56:32;18.70;99.90
10312;DHT22;5201;48.776;9.128;2023-09-30T00:58:59;18.80;99.90
10312;DHT22;5201;48.776;9.128;2023-09-30T01:01:25;18.70;99.90
10312;DHT22;5201;48.776;9.128;2023-09-30T01:03:51;18.70;99.90
10312;DHT22;5201;48.776;9.128;2023-09-30T01:06:17;18.70;99.90
10312;DHT22;5201;48.776;9.128;2023-09-30T01:08:43;18.60;99.90
10312;DHT22;5201;48.776;9.128;2023-09-30T01:11:09;18.60;99.90
10312;DHT22;5201;48.776;9.128;2023-09-30T01:13:35;18.60;99.90
10312;DHT22;5201;48.776;9.128;2023-09-30T01:16:04;18.60;99.90
10312;DHT22;5201;48.776;9.128;2023-09-30T01:18:31;18.60;99.90
10312;DHT22;5201;48.776;9.128;2023-09-30T01:21:03;18.60;99.90
10312;DHT22;5201;48.776;9.128;2023-09-30T01:23:30;18.60;99.90
10312;DHT22;5201;48.776;9.128;2023-09-30T01:25:56;18.60;99.90
10312;DHT22;5201;48.776;9.128;2023-09-30T01:28:21;18.50;99.90
10312;DHT22;5201;48.776;9.128;2023-09-30T01:30:48;18.50;99.90
10312;DHT22;5201;48.776;9.128;2023-09-30T01:33:14;18.60;99.90
10312;DHT22;5201;48.776;9.128;2023-09-30T01:35:39;18.60;99.90
10312;DHT22;5201;48.776;9.128;2023-09-30T01:38:05;18.60;99.90
10312;DHT22;5201;48.776;9.128;2023-09-30T01:40:30;18.60;99.90
10312;DHT22;5201;48.776;9.128;2023-09-30T01:42:56;18.50;99.90
10312;DHT22;5201;48.776;9.128;2023-09-30T01:45:22;18.50;99.90
10312;DHT22;5201;48.776;9.128;2023-09-30T01:47:48;18.60;99.90
10312;DHT22;5201;48.776;9.128;2023-09-30T01:50:13;18.60;99.90
10312;DHT22;5201;48.776;9.128;2023-09-30T01:52:39;18.60;99.90
10312;DHT22;5201;48.776;9.128;2023-09-30T01:55:04;18.60;99.90
10312;DHT22;5201;48.776;9.128;2023-09-30T01:57:30;18.50;99.90
10312;DHT22;5201;48.776;9.128;2023-09-30T01:59:55;18.80;99.90
10312;DHT22;5201;48.776;9.128;2023-09-30T02:02:21;18.60;99.90
10312;DHT22;5201;48.776;9.128;2023-09-30T02:04:46;18.70;99.90
10312;DHT22;5201;48.776;9.128;2023-09-30T02:07:12;18.60;99.90
10312;DHT22;5201;48.776;9.128;2023-09-30T02:09:38;18.60;99.90
10312;DHT22;5201;48.776;9.128;2023-09-30T02:12:03;18.60;99.90
10312;DHT22;5201;48.776;9.128;2023-09-30T02:14:29;18.50;99.90
10312;DHT22;5201;48.776;9.128;2023-09-30T02:16:55;18.50;99.90
10312;DHT22;5201;48.776;9.128;2023-09-30T02:19:20;18.50;99.90
10312;DHT22;5201;48.776;9.128;2023-09-30T02:21:47;18.40;99.90
10312;DHT22;5201;48.776;9.128;2023-09-30T02:24:14;18.40;99.90
10312;DHT22;5201;48.776;9.128;2023-09-30T02:26:40;18.30;99.90
10312;DHT22;5201;48.776;9.128;2023-09-30T02:29:06;18.20;99.90
10312;DHT22;5201;48.776;9.128;2023-09-30T02:31:33;18.20;99.90
10312;DHT22;5201;48.776;9.128;2023-09-30T02:33:59;18.20;99.90
10312;DHT22;5201;48.776;9.128;2023-09-30T02:36:24;18.20;99.90
10312;DHT22;5201;48.776;9.128;2023-09-30T02:38:50;18.30;99.90
10312;DHT22;5201;48.776;9.128;2023-09-30T02:41:16;18.30;99.90
10312;DHT22;5201;48.776;9.128;2023-09-30T02:43:42;18.40;99.90
10312;DHT22;5201;48.776;9.128;2023-09-30T02:46:08;18.30;99.90
10312;DHT22;5201;48.776;9.128;2023-09-30T02:48:34;18.30;99.90
10312;DHT22;5201;48.776;9.128;2023-09-30T02:50:59;18.10;99.90
10312;DHT22;5201;48.776;9.128;2023-09-30T02:53:25;18.10;99.90
10312;DHT22;5201;48.776;9.128;2023-09-30T02:55:50;18.10;99.90
10312;DHT22;5201;48.776;9.128;2023-09-30T02:58:21;18.10;99.90
10312;DHT22;5201;48.776;9.128;2023-09-30T03:00:50;18.20;99.90
10312;DHT22;5201;48.776;9.128;2023-09-30T03:03:15;18.20;99.90
10312;DHT22;5201;48.776;9.128;2023-09-30T03:05:41;18.20;99.90
10312;DHT22;5201;48.776;9.128;2023-09-30T03:08:07;18.20;99.90
10312;DHT22;5201;48.776;9.128;2023-09-30T03:10:32;18.20;99.90
10312;DHT22;5201;48.776;9.128;2023-09-30T03:12:58;18.20;99.90
10312;DHT22;5201;48.776;9.128;2023-09-30T03:15:28;18.00;99.90
10312;DHT22;5201;48.776;9.128;2023-09-30T03:17:56;17.70;99.90
10312;DHT22;5201;48.776;9.128;2023-09-30T03:20:22;17.70;99.90
10312;DHT22;5201;48.776;9.128;2023-09-30T03:22:50;17.80;99.90
10312;DHT22;5201;48.776;9.128;2023-09-30T03:25:16;18.00;99.90
10312;DHT22;5201;48.776;9.128;2023-09-30T03:27:43;18.00;99.90
10312;DHT22;5201;48.776;9.128;2023-09-30T03:30:09;18.00;99.90
10312;DHT22;5201;48.776;9.128;2023-09-30T03:32:38;18.00;99.90
10312;DHT22;5201;48.776;9.128;2023-09-30T03:35:05;17.90;99.90
10312;DHT22;5201;48.776;9.128;2023-09-30T03:37:34;18.00;99.90
10312;DHT22;5201;48.776;9.128;2023-09-30T03:40:00;18.00;99.90
10312;DHT22;5201;48.776;9.128;2023-09-30T03:42:31;18.00;99.90
10312;DHT22;5201;48.776;9.128;2023-09-30T03:44:57;18.10;99.90
10312;DHT22;5201;48.776;9.128;2023-09-30T03:47:22;18.00;99.90
10312;DHT22;5201;48.776;9.128;2023-09-30T03:49:49;18.20;99.90
10312;DHT22;5201;48.776;9.128;2023-09-30T03:52:14;18.10;99.90
10312;DHT22;5201;48.776;9.128;2023-09-30T03:54:40;18.10;99.90
10312;DHT22;5201;48.776;9.128;2023-09-30T03:57:07;18.00;99.90
10312;DHT22;5201;48.776;9.128;2023-09-30T03:59:32;17.90;99.90
10312;DHT22;5201;48.776;9.128;2023-09-30T04:01:58;18.10;99.90
10312;DHT22;5201;48.776;9.128;2023-09-30T04:04:23;17.90;99.90
10312;DHT22;5201;48.776;9.128;2023-09-30T04:06:49;17.90;99.90
10312;DHT22;5201;48.776;9.128;2023-09-30T04:09:17;17.90;99.90
10312;DHT22;5201;48.776;9.128;2023-09-30T04:11:43;17.90;99.90
10312;DHT22;5201;48.776;9.128;2023-09-30T04:14:09;17.90;99.90
10312;DHT22;5201;48.776;9.128;2023-09-30T04:16:35;17.90;99.90
10312;DHT22;5201;48.776;9.128;2023-09-30T04:19:01;17.90;99.90
10312;DHT22;5201;48.776;9.128;2023-09-30T04:21:27;17.90;99.90
10312;DHT22;5201;48.776;9.128;2023-09-30T04:23:54;17.80;99.90
10312;DHT22;5201;48.776;9.128;2023-09-30T04:26:19;18.00;99.90
10312;DHT22;5201;48.776;9.128;2023-09-30T04:28:45;17.60;99.90
10312;DHT22;5201;48.776;9.128;2023-09-30T04:31:11;17.70;99.90
10312;DHT22;5201;48.776;9.128;2023-09-30T04:33:39;17.80;99.90
10312;DHT22;5201;48.776;9.128;2023-09-30T04:36:06;17.70;99.90
10312;DHT22;5201;48.776;9.128;2023-09-30T04:38:34;17.70;99.90
10312;DHT22;5201;48.776;9.128;2023-09-30T04:41:00;17.70;99.90
10312;DHT22;5201;48.776;9.128;2023-09-30T04:43:26;17.80;99.90
10312;DHT22;5201;48.776;9.128;2023-09-30T04:45:54;17.80;99.90
10312;DHT22;5201;48.776;9.128;2023-09-30T04:48:25;20.00;99.90
10312;DHT22;5201;48.776;9.128;2023-09-30T04:50:50;17.70;99.90
10312;DHT22;5201;48.776;9.128;2023-09-30T04:53:20;17.70;99.90
10312;DHT22;5201;48.776;9.128;2023-09-30T04:55:46;17.70;99.90
10312;DHT22;5201;48.776;9.128;2023-09-30T04:58:14;17.80;99.90
10312;DHT22;5201;48.776;9.128;2023-09-30T05:00:40;17.80;99.90
10312;DHT22;5201;48.776;9.128;2023-09-30T05:03:05;17.80;99.90
10312;DHT22;5201;48.776;9.128;2023-09-30T05:05:32;17.70;99.90
10312;DHT22;5201;48.776;9.128;2023-09-30T05:07:57;17.80;99.90
10312;DHT22;5201;48.776;9.128;2023-09-30T05:10:24;17.70;99.90
10312;DHT22;5201;48.776;9.128;2023-09-30T05:12:50;17.70;99.90
10312;DHT22;5201;48.776;9.128;2023-09-30T05:15:20;17.70;99.90
10312;DHT22;5201;48.776;9.128;2023-09-30T05:17:46;17.60;99.90
10312;DHT22;5201;48.776;9.128;2023-09-30T05:20:13;17.70;99.90
10312;DHT22;5201;48.776;9.128;2023-09-30T05:22:40;17.60;99.90
10312;DHT22;5201;48.776;9.128;2023-09-30T05:25:14;18.00;99.90
10312;DHT22;5201;48.776;9.128;2023-09-30T05:27:44;17.70;99.90
10312;DHT22;5201;48.776;9.128;2023-09-30T05:30:10;17.60;99.90
10312;DHT22;5201;48.776;9.128;2023-09-30T05:32:37;17.60;99.90
10312;DHT22;5201;48.776;9.128;2023-09-30T05:35:05;17.60;99.90
10312;DHT22;5201;48.776;9.128;2023-09-30T05:37:31;17.60;99.90
10312;DHT22;5201;48.776;9.128;2023-09-30T05:39:57;17.60;99.90
10312;DHT22;5201;48.776;9.128;2023-09-30T05:42:22;17.60;99.90
10312;DHT22;5201;48.776;9.128;2023-09-30T05:44:48;17.50;99.90
10312;DHT22;5201;48.776;9.128;2023-09-30T05:47:14;17.60;99.90
10312;DHT22;5201;48.776;9.128;2023-09-30T05:49:41;17.60;99.90
10312;DHT22;5201;48.776;9.128;2023-09-30T05:52:07;17.50;99.90
10312;DHT22;5201;48.776;9.128;2023-09-30T05:54:32;17.50;99.90
10312;DHT22;5201;48.776;9.128;2023-09-30T05:56:58;17.50;99.90
10312;DHT22;5201;48.776;9.128;2023-09-30T05:59:25;17.60;99.90
10312;DHT22;5201;48.776;9.128;2023-09-30T06:01:51;17.60;99.90
10312;DHT22;5201;48.776;9.128;2023-09-30T06:04:17;17.80;99.90
10312;DHT22;5201;48.776;9.128;2023-09-30T06:06:42;17.60;99.90
10312;DHT22;5201;48.776;9.128;2023-09-30T06:09:09;17.60;99.90
10312;DHT22;5201;48.776;9.128;2023-09-30T06:11:34;17.70;99.90
10312;DHT22;5201;48.776;9.128;2023-09-30T06:14:01;17.40;99.90
10312;DHT22;5201;48.776;9.128;2023-09-30T06:16:27;17.30;99.90
10312;DHT22;5201;48.776;9.128;2023-09-30T06:18:53;17.40;99.90
10312;DHT22;5201;48.776;9.128;2023-09-30T06:21:20;17.40;99.90
10312;DHT22;5201;48.776;9.128;2023-09-30T06:23:47;17.40;99.90
10312;DHT22;5201;48.776;9.128;2023-09-30T06:26:14;17.40;99.90
10312;DHT22;5201;48.776;9.128;2023-09-30T06:28:40;17.50;99.90
10312;DHT22;5201;48.776;9.128;2023-09-30T06:31:10;17.50;99.90
10312;DHT22;5201;48.776;9.128;2023-09-30T06:33:39;17.90;99.90
10312;DHT22;5201;48.776;9.128;2023-09-30T06:36:09;17.60;99.90
10312;DHT22;5201;48.776;9.128;2023-09-30T06:38:35;17.70;99.90
10312;DHT22;5201;48.776;9.128;2023-09-30T06:41:02;17.80;99.90
10312;DHT22;5201;48.776;9.128;2023-09-30T06:43:28;17.50;99.90
10312;DHT22;5201;48.776;9.128;2023-09-30T06:45:53;17.50;99.90
10312;DHT22;5201;48.776;9.128;2023-09-30T06:48:19;17.60;99.90
10312;DHT22;5201;48.776;9.128;2023-09-30T06:50:46;17.60;99.90
10312;DHT22;5201;48.776;9.128;2023-09-30T06:53:22;17.70;99.90
10312;DHT22;5201;48.776;9.128;2023-09-30T06:55:48;17.80;99.90
10312;DHT22;5201;48.776;9.128;2023-09-30T06:58:14;17.90;99.90
10312;DHT22;5201;48.776;9.128;2023-09-30T07:00:44;18.00;99.90
10312;DHT22;5201;48.776;9.128;2023-09-30T07:03:10;18.00;99.90
10312;DHT22;5201;48.776;9.128;2023-09-30T07:05:36;17.90;99.90
10312;DHT22;5201;48.776;9.128;2023-09-30T07:08:02;17.80;99.90
10312;DHT22;5201;48.776;9.128;2023-09-30T07:10:28;17.80;99.90
10312;DHT22;5201;48.776;9.128;2023-09-30T07:12:55;17.80;99.90
10312;DHT22;5201;48.776;9.128;2023-09-30T07:15:20;18.20;99.90
10312;DHT22;5201;48.776;9.128;2023-09-30T07:17:46;17.90;99.90
10312;DHT22;5201;48.776;9.128;2023-09-30T07:20:13;17.90;99.90
10312;DHT22;5201;48.776;9.128;2023-09-30T07:22:39;17.90;99.90
10312;DHT22;5201;48.776;9.128;2023-09-30T07:25:05;17.90;99.90
10312;DHT22;5201;48.776;9.128;2023-09-30T07:27:31;17.90;99.90
10312;DHT22;5201;48.776;9.128;2023-09-30T07:29:57;17.90;99.90
10312;DHT22;5201;48.776;9.128;2023-09-30T07:32:22;17.80;99.90
10312;DHT22;5201;48.776;9.128;2023-09-30T07:34:49;17.90;99.90
10312;DHT22;5201;48.776;9.128;2023-09-30T07:37:16;18.30;99.90
10312;DHT22;5201;48.776;9.128;2023-09-30T07:39:42;18.00;99.90
10312;DHT22;5201;48.776;9.128;2023-09-30T07:42:11;18.00;99.90
10312;DHT22;5201;48.776;9.128;2023-09-30T07:44:37;18.10;99.90
10312;DHT22;5201;48.776;9.128;2023-09-30T07:47:05;18.40;99.90
10312;DHT22;5201;48.776;9.128;2023-09-30T07:49:35;18.20;99.90
10312;DHT22;5201;48.776;9.128;2023-09-30T07:52:00;18.20;99.90
10312;DHT22;5201;48.776;9.128;2023-09-30T07:54:26;18.20;99.90
10312;DHT22;5201;48.776;9.128;2023-09-30T07:56:51;18.40;99.90
10312;DHT22;5201;48.776;9.128;2023-09-30T07:59:17;18.50;99.90
10312;DHT22;5201;48.776;9.128;2023-09-30T08:01:43;18.50;99.90
10312;DHT22;5201;48.776;9.128;2023-09-30T08:04:09;18.50;99.90
10312;DHT22;5201;48.776;9.128;2023-09-30T08:06:34;18.40;99.90
10312;DHT22;5201;48.776;9.128;2023-09-30T08:09:00;18.60;99.90
10312;DHT22;5201;48.776;9.128;2023-09-30T08:11:25;18.60;99.90
10312;DHT22;5201;48.776;9.128;2023-09-30T08:13:56;18.70;99.90
10312;DHT22;5201;48.776;9.128;2023-09-30T08:16:21;18.80;99.90
10312;DHT22;5201;48.776;9.128;2023-09-30T08:18:47;18.90;99.90
10312;DHT22;5201;48.776;9.128;2023-09-30T08:21:12;18.80;99.90
10312;DHT22;5201;48.776;9.128;2023-09-30T08:23:38;18.80;99.90
10312;DHT22;5201;48.776;9.128;2023-09-30T08:26:07;18.80;99.90
10312;DHT22;5201;48.776;9.128;2023-09-30T08:28:33;18.80;99.90
10312;DHT22;5201;48.776;9.128;2023-09-30T08:31:05;19.00;99.90
10312;DHT22;5201;48.776;9.128;2023-09-30T08:33:32;18.80;99.90
10312;DHT22;5201;48.776;9.128;2023-09-30T08:36:04;18.80;99.90
10312;DHT22;5201;48.776;9.128;2023-09-30T08:38:40;18.70;99.90
10312;DHT22;5201;48.776;9.128;2023-09-30T08:41:06;19.10;99.90
10312;DHT22;5201;48.776;9.128;2023-09-30T08:43:39;18.90;99.90
10312;DHT22;5201;48.776;9.128;2023-09-30T08:46:05;19.20;99.90
10312;DHT22;5201;48.776;9.128;2023-09-30T08:48:34;18.90;99.90
10312;DHT22;5201;48.776;9.128;2023-09-30T08:51:01;18.80;99.90
10312;DHT22;5201;48.776;9.128;2023-09-30T08:53:29;18.90;99.90
10312;DHT22;5201;48.776;9.128;2023-09-30T08:55:56;19.10;99.90
10312;DHT22;5201;48.776;9.128;2023-09-30T08:58:24;19.30;99.90
10312;DHT22;5201;48.776;9.128;2023-09-30T09:00:50;19.60;99.90
10312;DHT22;5201;48.776;9.128;2023-09-30T09:03:18;19.70;99.90
10312;DHT22;5201;48.776;9.128;2023-09-30T09:05:44;19.90;99.90
10312;DHT22;5201;48.776;9.128;2023-09-30T09:08:10;19.70;99.90
10312;DHT22;5201;48.776;9.128;2023-09-30T09:10:35;19.90;99.90
10312;DHT22;5201;48.776;9.128;2023-09-30T09:13:07;19.60;99.90
10312;DHT22;5201;48.776;9.128;2023-09-30T09:15:32;19.90;99.90
10312;DHT22;5201;48.776;9.128;2023-09-30T09:17:58;19.60;99.90
10312;DHT22;5201;48.776;9.128;2023-09-30T09:20:25;19.70;99.90
10312;DHT22;5201;48.776;9.128;2023-09-30T09:22:54;19.70;99.90
10312;DHT22;5201;48.776;9.128;2023-09-30T09:25:21;19.70;99.90
10312;DHT22;5201;48.776;9.128;2023-09-30T09:27:51;19.70;99.90
10312;DHT22;5201;48.776;9.128;2023-09-30T09:30:26;19.70;99.90
10312;DHT22;5201;48.776;9.128;2023-09-30T09:33:02;19.90;99.90
10312;DHT22;5201;48.776;9.128;2023-09-30T09:35:31;19.50;99.90
10312;DHT22;5201;48.776;9.128;2023-09-30T09:38:06;19.50;99.90
10312;DHT22;5201;48.776;9.128;2023-09-30T09:40:33;19.40;99.90
10312;DHT22;5201;48.776;9.128;2023-09-30T09:43:00;19.70;99.90
10312;DHT22;5201;48.776;9.128;2023-09-30T09:45:30;19.40;99.90
10312;DHT22;5201;48.776;9.128;2023-09-30T09:47:59;19.40;99.90
10312;DHT22;5201;48.776;9.128;2023-09-30T09:50:25;19.90;99.90
10312;DHT22;5201;48.776;9.128;2023-09-30T09:52:54;19.60;99.90
10312;DHT22;5201;48.776;9.128;2023-09-30T09:55:25;19.60;99.90
10312;DHT22;5201;48.776;9.128;2023-09-30T09:57:51;19.70;99.90
10312;DHT22;5201;48.776;9.128;2023-09-30T10:00:19;19.60;99.90
10312;DHT22;5201;48.776;9.128;2023-09-30T10:02:46;19.60;99.90
10312;DHT22;5201;48.776;9.128;2023-09-30T10:05:12;19.70;99.90
10312;DHT22;5201;48.776;9.128;2023-09-30T10:08:01;19.80;99.90
10312;DHT22;5201;48.776;9.128;2023-09-30T10:10:28;19.90;99.90
10312;DHT22;5201;48.776;9.128;2023-09-30T10:12:55;19.50;99.90
10312;DHT22;5201;48.776;9.128;2023-09-30T10:18:11;19.50;99.90
10312;DHT22;5201;48.776;9.128;2023-09-30T10:20:42;19.50;99.90
10312;DHT22;5201;48.776;9.128;2023-09-30T10:23:26;19.80;99.90
10312;DHT22;5201;48.776;9.128;2023-09-30T10:28:42;19.70;99.90
10312;DHT22;5201;48.776;9.128;2023-09-30T10:31:19;19.70;99.90
10312;DHT22;5201;48.776;9.128;2023-09-30T10:36:27;19.80;99.90
10312;DHT22;5201;48.776;9.128;2023-09-30T10:38:54;19.50;99.90
10312;DHT22;5201;48.776;9.128;2023-09-30T10:46:57;19.60;99.90
10312;DHT22;5201;48.776;9.128;2023-09-30T10:51:53;19.70;99.90
10312;DHT22;5201;48.776;9.128;2023-09-30T10:54:27;19.60;99.90
10312;DHT22;5201;48.776;9.128;2023-09-30T10:56:53;19.60;99.90
10312;DHT22;5201;48.776;9.128;2023-09-30T10:59:21;19.50;99.90
10312;DHT22;5201;48.776;9.128;2023-09-30T11:01:47;19.60;99.90
10312;DHT22;5201;48.776;9.128;2023-09-30T11:04:14;19.60;99.90
10312;DHT22;5201;48.776;9.128;2023-09-30T11:06:41;19.90;99.90
10312;DHT22;5201;48.776;9.128;2023-09-30T11:09:07;19.80;99.90
10312;DHT22;5201;48.776;9.128;2023-09-30T11:14:28;19.80;99.90
10312;DHT22;5201;48.776;9.128;2023-09-30T11:16:57;20.00;99.90
10312;DHT22;5201;48.776;9.128;2023-09-30T11:19:23;19.70;99.90
10312;DHT22;5201;48.776;9.128;2023-09-30T11:21:51;19.80;99.90
10312;DHT22;5201;48.776;9.128;2023-09-30T11:24:17;19.60;99.90
10312;DHT22;5201;48.776;9.128;2023-09-30T11:26:43;19.90;99.90
10312;DHT22;5201;48.776;9.128;2023-09-30T11:31:43;20.00;99.90
10312;DHT22;5201;48.776;9.128;2023-09-30T11:34:10;20.10;99.90
10312;DHT22;5201;48.776;9.128;2023-09-30T11:36:38;20.20;99.90
10312;DHT22;5201;48.776;9.128;2023-09-30T11:39:05;20.20;99.90
10312;DHT22;5201;48.776;9.128;2023-09-30T11:41:35;20.50;99.90
10312;DHT22;5201;48.776;9.128;2023-09-30T11:44:08;20.50;99.90
10312;DHT22;5201;48.776;9.128;2023-09-30T11:46:55;20.70;99.90
10312;DHT22;5201;48.776;9.128;2023-09-30T11:49:32;20.70;99.90
10312;DHT22;5201;48.776;9.128;2023-09-30T11:52:07;20.70;99.90
10312;DHT22;5201;48.776;9.128;2023-09-30T11:54:43;20.70;99.90
10312;DHT22;5201;48.776;9.128;2023-09-30T11:57:16;20.80;99.90
10312;DHT22;5201;48.776;9.128;2023-09-30T11:59:43;20.80;99.90
10312;DHT22;5201;48.776;9.128;2023-09-30T12:02:09;20.70;99.90
10312;DHT22;5201;48.776;9.128;2023-09-30T12:04:38;20.80;99.90
10312;DHT22;5201;48.776;9.128;2023-09-30T12:07:04;20.70;99.90
10312;DHT22;5201;48.776;9.128;2023-09-30T12:09:32;20.70;99.90
10312;DHT22;5201;48.776;9.128;2023-09-30T12:11:58;20.60;99.90
10312;DHT22;5201;48.776;9.128;2023-09-30T12:14:24;20.70;99.90
10312;DHT22;5201;48.776;9.128;2023-09-30T12:16:50;20.70;99.90
10312;DHT22;5201;48.776;9.128;2023-09-30T12:19:17;20.70;99.90
10312;DHT22;5201;48.776;9.128;2023-09-30T12:21:43;20.70;99.90
10312;DHT22;5201;48.776;9.128;2023-09-30T12:24:12;20.70;99.90
10312;DHT22;5201;48.776;9.128;2023-09-30T12:26:45;20.70;99.90
10312;DHT22;5201;48.776;9.128;2023-09-30T12:29:17;20.70;99.90
10312;DHT22;5201;48.776;9.128;2023-09-30T12:31:46;20.70;99.90
10312;DHT22;5201;48.776;9.128;2023-09-30T12:34:13;20.60;99.90
10312;DHT22;5201;48.776;9.128;2023-09-30T12:36:39;20.70;99.90
10312;DHT22;5201;48.776;9.128;2023-09-30T12:39:05;20.90;99.90
10312;DHT22;5201;48.776;9.128;2023-09-30T12:41:37;20.70;99.90
10312;DHT22;5201;48.776;9.128;2023-09-30T12:44:02;20.80;99.90
10312;DHT22;5201;48.776;9.128;2023-09-30T12:46:28;20.90;99.90
10312;DHT22;5201;48.776;9.128;2023-09-30T12:48:54;21.10;99.90
10312;DHT22;5201;48.776;9.128;2023-09-30T12:51:20;21.00;99.90
10312;DHT22;5201;48.776;9.128;2023-09-30T12:53:46;21.00;99.90
10312;DHT22;5201;48.776;9.128;2023-09-30T12:56:12;20.90;99.90
10312;DHT22;5201;48.776;9.128;2023-09-30T12:58:37;21.00;99.90
10312;DHT22;5201;48.776;9.128;2023-09-30T13:01:04;21.00;99.90
10312;DHT22;5201;48.776;9.128;2023-09-30T13:03:31;21.10;99.90
10312;DHT22;5201;48.776;9.128;2023-09-30T13:05:57;21.30;99.90
10312;DHT22;5201;48.776;9.128;2023-09-30T13:08:23;21.20;99.90
10312;DHT22;5201;48.776;9.128;2023-09-30T13:10:48;21.10;99.90
10312;DHT22;5201;48.776;9.128;2023-09-30T13:13:16;21.10;99.90
10312;DHT22;5201;48.776;9.128;2023-09-30T13:15:41;21.00;99.90
10312;DHT22;5201;48.776;9.128;2023-09-30T13:18:07;21.00;99.90
10312;DHT22;5201;48.776;9.128;2023-09-30T13:20:32;21.00;99.90
10312;DHT22;5201;48.776;9.128;2023-09-30T13:22:58;21.00;99.90
10312;DHT22;5201;48.776;9.128;2023-09-30T13:25:24;21.00;99.90
10312;DHT22;5201;48.776;9.128;2023-09-30T13:27:49;21.10;99.90
10312;DHT22;5201;48.776;9.128;2023-09-30T13:30:15;21.10;99.90
10312;DHT22;5201;48.776;9.128;2023-09-30T13:32:40;21.10;99.90
10312;DHT22;5201;48.776;9.128;2023-09-30T13:35:06;21.10;99.90
10312;DHT22;5201;48.776;9.128;2023-09-30T13:37:33;21.20;99.90
10312;DHT22;5201;48.776;9.128;2023-09-30T13:40:00;21.20;99.90
10312;DHT22;5201;48.776;9.128;2023-09-30T13:42:26;20.90;99.90
10312;DHT22;5201;48.776;9.128;2023-09-30T13:44:52;20.90;99.90
10312;DHT22;5201;48.776;9.128;2023-09-30T13:47:17;23.00;99.90
10312;DHT22;5201;48.776;9.128;2023-09-30T13:49:43;20.80;99.90
10312;DHT22;5201;48.776;9.128;2023-09-30T13:52:08;20.80;99.90
10312;DHT22;5201;48.776;9.128;2023-09-30T13:54:34;20.60;99.90
10312;DHT22;5201;48.776;9.128;2023-09-30T13:56:59;20.60;99.90
10312;DHT22;5201;48.776;9.128;2023-09-30T13:59:25;20.40;99.90
10312;DHT22;5201;48.776;9.128;2023-09-30T14:01:51;20.40;99.90
10312;DHT22;5201;48.776;9.128;2023-09-30T14:04:16;20.40;99.90
10312;DHT22;5201;48.776;9.128;2023-09-30T14:06:42;20.40;99.90
10312;DHT22;5201;48.776;9.128;2023-09-30T14:09:08;20.30;99.90
10312;DHT22;5201;48.776;9.128;2023-09-30T14:11:40;20.40;99.90
10312;DHT22;5201;48.776;9.128;2023-09-30T14:14:06;20.30;99.90
10312;DHT22;5201;48.776;9.128;2023-09-30T14:16:35;20.40;99.90
10312;DHT22;5201;48.776;9.128;2023-09-30T14:19:01;20.50;99.90
10312;DHT22;5201;48.776;9.128;2023-09-30T14:21:26;20.50;99.90
10312;DHT22;5201;48.776;9.128;2023-09-30T14:23:54;20.60;99.90
10312;DHT22;5201;48.776;9.128;2023-09-30T14:26:19;20.60;99.90
10312;DHT22;5201;48.776;9.128;2023-09-30T14:28:45;20.50;99.90
10312;DHT22;5201;48.776;9.128;2023-09-30T14:31:10;20.40;99.90
10312;DHT22;5201;48.776;9.128;2023-09-30T14:33:36;20.60;99.90
10312;DHT22;5201;48.776;9.128;2023-09-30T14:36:03;20.60;99.90
10312;DHT22;5201;48.776;9.128;2023-09-30T14:38:31;20.60;99.90
10312;DHT22;5201;48.776;9.128;2023-09-30T14:40:58;20.70;99.90
10312;DHT22;5201;48.776;9.128;2023-09-30T14:43:23;20.90;99.90
10312;DHT22;5201;48.776;9.128;2023-09-30T14:45:49;20.60;99.90
10312;DHT22;5201;48.776;9.128;2023-09-30T14:48:14;20.80;99.90
10312;DHT22;5201;48.776;9.128;2023-09-30T14:50:50;20.80;99.90
10312;DHT22;5201;48.776;9.128;2023-09-30T14:53:16;20.80;99.90
10312;DHT22;5201;48.776;9.128;2023-09-30T14:55:41;20.80;99.90
10312;DHT22;5201;48.776;9.128;2023-09-30T14:58:08;20.80;99.90
10312;DHT22;5201;48.776;9.128;2023-09-30T15:00:33;20.70;99.90
10312;DHT22;5201;48.776;9.128;2023-09-30T15:02:59;20.80;99.90
10312;DHT22;5201;48.776;9.128;2023-09-30T15:05:25;20.70;99.90
10312;DHT22;5201;48.776;9.128;2023-09-30T15:07:51;20.60;99.90
10312;DHT22;5201;48.776;9.128;2023-09-30T15:10:16;20.60;99.90
10312;DHT22;5201;48.776;9.128;2023-09-30T15:12:42;20.70;99.90
10312;DHT22;5201;48.776;9.128;2023-09-30T15:15:08;20.50;99.90
10312;DHT22;5201;48.776;9.128;2023-09-30T15:17:34;20.50;99.90
10312;DHT22;5201;48.776;9.128;2023-09-30T15:19:59;20.80;99.90
10312;DHT22;5201;48.776;9.128;2023-09-30T15:22:26;20.40;99.90
10312;DHT22;5201;48.776;9.128;2023-09-30T15:24:51;20.40;99.90
10312;DHT22;5201;48.776;9.128;2023-09-30T15:27:17;20.40;99.90
10312;DHT22;5201;48.776;9.128;2023-09-30T15:29:44;20.50;99.90
10312;DHT22;5201;48.776;9.128;2023-09-30T15:32:09;20.50;99.90
10312;DHT22;5201;48.776;9.128;2023-09-30T15:34:38;20.60;99.90
10312;DHT22;5201;48.776;9.128;2023-09-30T15:37:06;20.40;99.90
10312;DHT22;5201;48.776;9.128;2023-09-30T15:39:38;20.40;99.90
10312;DHT22;5201;48.776;9.128;2023-09-30T15:42:04;20.40;99.90
10312;DHT22;5201;48.776;9.128;2023-09-30T15:44:29;20.20;99.90
10312;DHT22;5201;48.776;9.128;2023-09-30T15:46:55;20.20;99.90
10312;DHT22;5201;48.776;9.128;2023-09-30T15:49:22;20.30;99.90
10312;DHT22;5201;48.776;9.128;2023-09-30T15:51:47;20.20;99.90
10312;DHT22;5201;48.776;9.128;2023-09-30T15:54:13;20.30;99.90
10312;DHT22;5201;48.776;9.128;2023-09-30T15:56:38;20.30;99.90
10312;DHT22;5201;48.776;9.128;2023-09-30T15:59:05;20.30;99.90
10312;DHT22;5201;48.776;9.128;2023-09-30T16:01:31;20.20;99.90
10312;DHT22;5201;48.776;9.128;2023-09-30T16:03:56;20.30;99.90